Terminal Aerodrome Forecast
Issued by NWS

Home | Current Version | Previous Version | Text Only | Print | Product List | Glossary On
Versions: 1 2 3 4 5 6 7 8 9 10 11 12 13 14 15 16 17 18 19 20 21 22 23 24 25 26
000
FTUS43 KDLH 180903 AAA
TAFBRD
TAF AMD
KBRD 180903Z 1809/1906 19006KT 5SM BR SCT025 OVC100
     FM181400 20008KT P6SM BKN080 OVC150
     FM182300 23011G28KT P6SM OVC035=

USA.gov is the U.S. government's official web portal to all federal, state and local government web resources and services.